createdAt,value
2023-04-18T00:01:14.318Z,7.1
2023-04-18T00:04:01.906Z,7.9
2023-04-18T00:06:50.020Z,9.4
2023-04-18T00:09:37.374Z,7.9
2023-04-18T00:12:25.215Z,6.9
2023-04-18T00:15:12.622Z,7.6
2023-04-18T00:18:00.534Z,7.6
2023-04-18T00:20:48.274Z,7.7
2023-04-18T00:23:35.580Z,8.7
2023-04-18T00:26:23.082Z,7.6
2023-04-18T00:29:10.817Z,7.2
2023-04-18T00:31:58.089Z,8.6
2023-04-18T00:34:45.570Z,7.3
2023-04-18T00:37:32.996Z,8.6
2023-04-18T00:40:20.380Z,9.4
2023-04-18T00:43:08.254Z,7.9
2023-04-18T00:45:58.516Z,8.4
2023-04-18T00:48:46.041Z,8.9
2023-04-18T00:51:34.036Z,9.3
2023-04-18T00:54:21.680Z,8.9
2023-04-18T00:57:11.016Z,9.2
2023-04-18T00:59:58.868Z,8
2023-04-18T01:02:51.517Z,8.5
2023-04-18T01:05:40.024Z,9.2
2023-04-18T01:08:27.435Z,8.8
2023-04-18T01:11:14.966Z,8.7
2023-04-18T01:14:02.228Z,9.2
2023-04-18T01:16:51.816Z,8.7
2023-04-18T01:19:39.476Z,9.5
2023-04-18T01:22:27.241Z,9.8
2023-04-18T01:25:16.318Z,10.6
2023-04-18T01:28:03.555Z,10.2
2023-04-18T01:30:52.283Z,10.5
2023-04-18T01:33:39.644Z,9.3
2023-04-18T01:36:26.992Z,10.3
2023-04-18T01:39:14.506Z,9.8
2023-04-18T01:42:03.008Z,11.1
2023-04-18T01:44:50.426Z,10.2
2023-04-18T01:47:37.747Z,8.2
2023-04-18T01:50:25.088Z,9
2023-04-18T01:53:12.475Z,11
2023-04-18T01:55:59.886Z,10.6
2023-04-18T01:58:47.319Z,11.6
2023-04-18T02:01:34.585Z,9.6
2023-04-18T02:04:22.205Z,9.5
2023-04-18T02:07:09.670Z,10.3
2023-04-18T02:09:57.158Z,9.9
2023-04-18T02:12:44.388Z,11.4
2023-04-18T02:15:31.734Z,10.7
2023-04-18T02:18:19.148Z,10.4
2023-04-18T02:21:09.322Z,9.1
2023-04-18T02:23:56.866Z,11.3
2023-04-18T02:26:44.277Z,9.5
2023-04-18T02:29:31.605Z,10.5
2023-04-18T02:32:18.944Z,10.7
2023-04-18T02:35:06.209Z,10.1
2023-04-18T02:37:53.912Z,10.4
2023-04-18T02:40:41.242Z,10.8
2023-04-18T02:43:28.617Z,11.3
2023-04-18T02:46:16.326Z,11.3
2023-04-18T02:49:03.839Z,10.3
2023-04-18T02:51:51.973Z,11.1
2023-04-18T02:54:40.467Z,11
2023-04-18T02:57:27.753Z,11.4
2023-04-18T03:00:15.166Z,12.3
2023-04-18T03:03:03.004Z,10.1
2023-04-18T03:05:50.570Z,10.4
2023-04-18T03:08:37.876Z,10.2
2023-04-18T03:11:25.814Z,10.6
2023-04-18T03:14:13.344Z,10.4
2023-04-18T03:17:00.828Z,11.5
2023-04-18T03:19:48.877Z,9.9
2023-04-18T03:22:36.264Z,9.6
2023-04-18T03:25:23.528Z,10.3
2023-04-18T03:28:10.905Z,10.9
2023-04-18T03:30:58.268Z,11.9
2023-04-18T03:33:45.679Z,11.4
2023-04-18T03:36:33.685Z,10.3
2023-04-18T03:39:21.157Z,10.8
2023-04-18T03:42:08.923Z,11.1
2023-04-18T03:44:56.292Z,11.6
2023-04-18T03:47:43.576Z,12
2023-04-18T03:50:31.185Z,9.9
2023-04-18T03:53:18.731Z,10.4
2023-04-18T03:56:06.123Z,9.9
2023-04-18T03:58:53.469Z,11.8
2023-04-18T04:01:40.850Z,10.1
2023-04-18T04:04:28.306Z,10.9
2023-04-18T04:07:15.712Z,10.2
2023-04-18T04:10:03.495Z,11.2
2023-04-18T04:12:52.466Z,10.1
2023-04-18T04:15:39.877Z,11.6
2023-04-18T04:18:27.164Z,11.1
2023-04-18T04:21:15.652Z,9.7
2023-04-18T04:24:03.070Z,9.5
2023-04-18T04:26:51.560Z,10
2023-04-18T04:29:38.970Z,10.7
2023-04-18T04:32:28.347Z,10.5
2023-04-18T04:35:15.828Z,10.7
2023-04-18T04:38:03.315Z,8.9
2023-04-18T04:40:51.818Z,10.4
2023-04-18T04:43:39.097Z,11.4
2023-04-18T04:46:27.560Z,10.2
2023-04-18T04:49:15.265Z,9.6
2023-04-18T04:52:02.555Z,10
2023-04-18T04:54:49.871Z,10.1
2023-04-18T04:57:37.340Z,11.3
2023-04-18T05:00:24.696Z,11.3
2023-04-18T05:03:13.576Z,12
2023-04-18T05:06:01.017Z,10.6
2023-04-18T05:08:48.401Z,10.3
2023-04-18T05:11:36.154Z,10.6
2023-04-18T05:14:23.460Z,11
2023-04-18T05:17:10.930Z,11.8
2023-04-18T05:19:58.552Z,10.9
2023-04-18T05:22:45.769Z,10.3
2023-04-18T05:25:33.134Z,10.6
2023-04-18T05:28:20.611Z,10.9
2023-04-18T05:31:10.414Z,11.9
2023-04-18T05:33:58.008Z,11
2023-04-18T05:36:45.296Z,9
2023-04-18T05:39:32.998Z,9.3
2023-04-18T05:42:20.582Z,9.5
2023-04-18T05:45:08.364Z,10.4
2023-04-18T05:47:56.669Z,11
2023-04-18T05:50:44.038Z,9.4
2023-04-18T05:53:31.426Z,11.4
2023-04-18T05:56:18.738Z,11.1
2023-04-18T05:59:06.051Z,11.6
2023-04-18T06:01:53.479Z,12.1
2023-04-18T06:04:41.239Z,11.2
2023-04-18T06:07:28.722Z,10.1
2023-04-18T06:10:16.359Z,12
2023-04-18T06:13:03.928Z,11
2023-04-18T06:15:51.267Z,10.9
2023-04-18T06:18:38.821Z,12.4
2023-04-18T06:21:26.208Z,10.6
2023-04-18T06:24:13.988Z,10.7
2023-04-18T06:27:01.586Z,10.6
2023-04-18T06:29:50.451Z,11.8
2023-04-18T06:32:37.815Z,11.6
2023-04-18T06:35:26.637Z,11.8
2023-04-18T06:38:16.568Z,10.9
2023-04-18T06:41:04.035Z,12.1
2023-04-18T06:44:02.845Z,12.7
2023-04-18T06:46:51.719Z,12.6
2023-04-18T06:49:39.358Z,11.5
2023-04-18T06:52:26.914Z,13.2
2023-04-18T06:55:14.285Z,11.8
2023-04-18T06:58:01.607Z,10.8
2023-04-18T07:00:50.092Z,13.1
2023-04-18T07:03:37.879Z,11.3
2023-04-18T07:06:25.398Z,11.6
2023-04-18T07:09:13.042Z,12.8
2023-04-18T07:12:00.435Z,12.3
2023-04-18T07:14:47.772Z,11.5
2023-04-18T07:17:35.874Z,11.7
2023-04-18T07:20:23.281Z,11.4
2023-04-18T07:23:10.552Z,11.3
2023-04-18T07:25:57.811Z,12.9
2023-04-18T07:28:47.258Z,12.9
2023-04-18T07:31:35.021Z,10.8
2023-04-18T07:34:22.562Z,11.8
2023-04-18T07:37:14.150Z,11.3
2023-04-18T07:40:03.798Z,11.8
2023-04-18T07:42:53.286Z,11.3
2023-04-18T07:45:40.636Z,12.7
2023-04-18T07:48:28.001Z,11.3
2023-04-18T07:51:15.820Z,11.2
2023-04-18T07:54:03.184Z,11.6
2023-04-18T07:56:50.854Z,12.4
2023-04-18T07:59:38.310Z,12.3
2023-04-18T08:02:25.964Z,12.6
2023-04-18T08:05:13.946Z,12.2
2023-04-18T08:08:01.471Z,11.9
2023-04-18T08:10:48.880Z,11.7
2023-04-18T08:13:36.436Z,10.8
2023-04-18T08:16:23.955Z,12.6
2023-04-18T08:19:12.074Z,12.2
2023-04-18T08:21:59.786Z,12.7
2023-04-18T08:25:04.265Z,11.6
2023-04-18T08:27:53.765Z,11.2
2023-04-18T08:30:41.092Z,11
2023-04-18T08:33:33.356Z,12.2
2023-04-18T08:36:21.051Z,11.7
2023-04-18T08:39:09.669Z,11.4
2023-04-18T08:41:57.094Z,12.7
2023-04-18T08:44:46.186Z,11.2
2023-04-18T08:47:33.747Z,11.9
2023-04-18T08:50:21.487Z,10.4
2023-04-18T08:53:09.456Z,11
2023-04-18T08:55:57.153Z,10.9
2023-04-18T08:58:46.034Z,11.1
2023-04-18T09:01:34.291Z,11.1
2023-04-18T09:04:41.355Z,10.1
2023-04-18T09:07:30.529Z,11.4
2023-04-18T09:10:18.228Z,10
2023-04-18T09:13:13.469Z,10.4
2023-04-18T09:16:23.298Z,10.4
2023-04-18T09:19:12.566Z,10.3
2023-04-18T09:22:02.854Z,10.2
2023-04-18T09:24:52.624Z,10.6
2023-04-18T09:27:41.959Z,10.8
2023-04-18T09:30:29.336Z,9.8
2023-04-18T09:33:21.512Z,9.1
2023-04-18T09:36:13.718Z,11
2023-04-18T09:39:03.383Z,10.8
2023-04-18T09:41:50.802Z,10.9
2023-04-18T09:44:46.981Z,11.3
2023-04-18T09:47:52.832Z,11.6
2023-04-18T09:50:40.543Z,11.5
2023-04-18T09:53:28.671Z,11.8
2023-04-18T09:56:16.602Z,11.7
2023-04-18T09:59:09.558Z,11.3
2023-04-18T10:01:58.041Z,11.5
2023-04-18T10:04:48.362Z,11
2023-04-18T10:07:37.971Z,12.2
2023-04-18T10:10:28.941Z,11.5
2023-04-18T10:13:17.270Z,10.9
2023-04-18T10:16:04.961Z,11.4
2023-04-18T10:18:52.828Z,11.8
2023-04-18T10:21:41.116Z,11.8
2023-04-18T10:24:36.848Z,12.1
2023-04-18T10:27:32.737Z,12.2
2023-04-18T10:30:52.406Z,11.9
2023-04-18T10:36:39.589Z,11.3
2023-04-18T10:39:49.004Z,10.8
2023-04-18T10:42:42.298Z,11.9
2023-04-18T10:45:46.630Z,10.9
2023-04-18T10:48:56.025Z,10.8
2023-04-18T10:51:58.835Z,10.5
2023-04-18T10:54:47.946Z,10.8
2023-04-18T10:57:39.051Z,10.3
2023-04-18T11:00:28.614Z,10.8
2023-04-18T11:03:16.863Z,10.3
2023-04-18T11:06:04.355Z,11
2023-04-18T11:08:52.400Z,11.2
2023-04-18T11:11:54.912Z,10.7
2023-04-18T11:14:51.317Z,10.8
2023-04-18T11:17:39.021Z,10.7
2023-04-18T11:20:26.533Z,10.2
2023-04-18T11:23:15.291Z,11.1
2023-04-18T11:26:05.979Z,10.6
2023-04-18T11:28:53.531Z,10.9
2023-04-18T11:31:43.163Z,11.1
2023-04-18T11:34:36.212Z,11.2
2023-04-18T11:37:23.623Z,12.4
2023-04-18T11:40:10.975Z,10.3
2023-04-18T11:42:59.031Z,10.1
2023-04-18T11:45:47.633Z,10.1
2023-04-18T11:48:37.740Z,11.7
2023-04-18T11:51:26.887Z,11.1
2023-04-18T11:54:20.045Z,10.9
2023-04-18T11:57:26.412Z,10.5
2023-04-18T12:00:16.570Z,12.5
2023-04-18T12:03:06.413Z,11.3
2023-04-18T12:06:03.378Z,13.2
2023-04-18T12:08:53.602Z,12.4
2023-04-18T12:11:44.535Z,13.2
2023-04-18T12:14:43.064Z,11.6
2023-04-18T12:17:31.311Z,11.8
2023-04-18T12:20:19.048Z,10.6
2023-04-18T12:23:09.422Z,10
2023-04-18T12:26:14.539Z,10.8
2023-04-18T12:29:02.940Z,9.4
2023-04-18T12:31:50.352Z,9.4
2023-04-18T12:34:37.646Z,9.7
2023-04-18T12:37:24.889Z,9.4
2023-04-18T12:40:12.359Z,9.6
2023-04-18T12:43:02.944Z,10.3
2023-04-18T12:45:51.534Z,9.9
2023-04-18T12:48:38.966Z,10.6
2023-04-18T12:51:26.307Z,10.1
2023-04-18T12:54:13.859Z,9.8
2023-04-18T12:57:01.506Z,9.7
2023-04-18T12:59:49.087Z,9.7
2023-04-18T13:02:44.343Z,9.3
2023-04-18T13:05:33.996Z,9.7
2023-04-18T13:08:21.713Z,9
2023-04-18T13:11:09.588Z,9.1
2023-04-18T13:13:57.192Z,7.9
2023-04-18T13:16:44.972Z,9.5
2023-04-18T13:19:33.247Z,9.1
2023-04-18T13:22:21.113Z,7.8
2023-04-18T13:25:09.286Z,9.1
2023-04-18T13:27:56.978Z,8.5
2023-04-18T13:30:45.327Z,9.7
2023-04-18T13:33:32.684Z,8.5
2023-04-18T13:36:20.011Z,9
2023-04-18T13:39:08.845Z,9.9
2023-04-18T13:41:56.343Z,8.3
2023-04-18T13:44:44.456Z,9
2023-04-18T13:47:32.538Z,8.5
2023-04-18T13:50:20.593Z,8
2023-04-18T13:53:09.223Z,8.6
2023-04-18T13:55:56.868Z,9.5
2023-04-18T13:58:46.272Z,8.5
2023-04-18T14:01:34.037Z,8.1
2023-04-18T14:04:22.698Z,8.3
2023-04-18T14:07:11.514Z,8.5
2023-04-18T14:09:59.056Z,8
2023-04-18T14:12:46.915Z,8.9
2023-04-18T14:19:27.413Z,10.3
2023-04-18T14:22:14.936Z,9
2023-04-18T14:25:02.254Z,11
2023-04-18T14:27:50.740Z,10.2
2023-04-18T14:30:50.164Z,11.8
2023-04-18T14:33:39.956Z,10.8
2023-04-18T14:36:27.581Z,11.5
2023-04-18T14:39:15.703Z,10.8
2023-04-18T14:42:03.149Z,11.5
2023-04-18T14:44:50.960Z,9.3
2023-04-18T14:47:38.353Z,8.7
2023-04-18T14:50:26.484Z,8.5
2023-04-18T14:53:13.940Z,8.1
2023-04-18T14:56:01.389Z,7.5
2023-04-18T14:58:49.065Z,9.8
2023-04-18T15:01:36.663Z,10
2023-04-18T15:04:26.141Z,10.2
2023-04-18T15:07:13.867Z,10.4
2023-04-18T15:10:01.768Z,8.7
2023-04-18T15:12:51.575Z,8.6
2023-04-18T15:15:38.999Z,8.4
2023-04-18T15:18:26.434Z,8.6
2023-04-18T15:21:13.721Z,7.2
2023-04-18T15:24:01.151Z,8.2
2023-04-18T15:26:48.667Z,7.8
2023-04-18T15:29:36.367Z,9
2023-04-18T15:32:24.135Z,7.2
2023-04-18T15:35:12.328Z,7.4
2023-04-18T15:37:59.833Z,8.1
2023-04-18T15:40:47.395Z,9.2
2023-04-18T15:43:35.370Z,8.6
2023-04-18T15:46:25.349Z,8.1
2023-04-18T15:49:12.765Z,7.8
2023-04-18T15:52:00.476Z,7.9
2023-04-18T15:54:48.166Z,8.4
2023-04-18T15:57:36.810Z,8.4
2023-04-18T16:00:24.429Z,8.8
2023-04-18T16:03:12.197Z,8.2
2023-04-18T16:05:59.622Z,8.1
2023-04-18T16:08:47.069Z,9.4
2023-04-18T16:11:34.317Z,9.6
2023-04-18T16:14:21.917Z,8.3
2023-04-18T16:17:10.068Z,10.7
2023-04-18T16:19:57.531Z,8.8
2023-04-18T16:22:44.930Z,9.7
2023-04-18T16:25:32.321Z,9.3
2023-04-18T16:28:19.754Z,8.7
2023-04-18T16:31:07.743Z,7.6
2023-04-18T16:33:55.481Z,7.5
2023-04-18T16:36:43.017Z,7.9
2023-04-18T16:39:30.402Z,7.5
2023-04-18T16:42:18.001Z,7.2
2023-04-18T16:45:05.361Z,7.2
2023-04-18T16:47:53.677Z,7.2
2023-04-18T16:50:41.968Z,8.4
2023-04-18T16:53:30.569Z,8.2
2023-04-18T16:56:17.914Z,7
2023-04-18T16:59:05.308Z,6.6
2023-04-18T17:01:54.105Z,6.8
2023-04-18T17:04:41.663Z,6.9
2023-04-18T17:07:29.032Z,6.9
2023-04-18T17:10:16.408Z,6.9
2023-04-18T17:13:04.017Z,6.6
2023-04-18T17:15:51.449Z,6.7
2023-04-18T17:18:39.052Z,7.5
2023-04-18T17:21:26.539Z,7.1
2023-04-18T17:24:13.910Z,6.8
2023-04-18T17:27:03.414Z,7
2023-04-18T17:29:50.990Z,7
2023-04-18T17:32:38.388Z,7.2
2023-04-18T17:35:30.279Z,7.4
2023-04-18T17:38:17.608Z,6.6
2023-04-18T17:41:04.956Z,7
2023-04-18T17:43:52.398Z,7.4
2023-04-18T17:46:39.803Z,6.1
2023-04-18T17:49:27.201Z,7
2023-04-18T17:52:18.952Z,6.9
2023-04-18T17:55:06.334Z,6.5
2023-04-18T17:57:54.294Z,6.1
2023-04-18T18:00:42.184Z,6.9
2023-04-18T18:03:29.767Z,7.2
2023-04-18T18:06:17.309Z,7.2
2023-04-18T18:09:04.709Z,6.7
2023-04-18T18:11:54.700Z,7.7
2023-04-18T18:14:43.636Z,7.7
2023-04-18T18:17:31.287Z,6.9
2023-04-18T18:20:18.851Z,8.2
2023-04-18T18:23:06.701Z,6.7
2023-04-18T18:25:54.565Z,7.3
2023-04-18T18:28:42.091Z,6.3
2023-04-18T18:31:29.868Z,7
2023-04-18T18:34:17.419Z,6.6
2023-04-18T18:37:06.145Z,7
2023-04-18T18:39:53.617Z,8.3
2023-04-18T18:42:41.390Z,7.1
2023-04-18T18:45:29.638Z,8.5
2023-04-18T18:48:17.098Z,8
2023-04-18T18:51:04.578Z,8
2023-04-18T18:53:52.254Z,8.5
2023-04-18T18:56:41.408Z,9.2
2023-04-18T18:59:29.968Z,7.9
2023-04-18T19:02:17.735Z,8.3
2023-04-18T19:05:05.573Z,8.4
2023-04-18T19:07:57.145Z,8.3
2023-04-18T19:10:48.562Z,9
2023-04-18T19:13:35.893Z,8.8
2023-04-18T19:16:23.306Z,8.5
2023-04-18T19:19:10.915Z,7.9
2023-04-18T19:21:59.095Z,8.6
2023-04-18T19:24:46.441Z,9.6
2023-04-18T19:27:33.963Z,9.1
2023-04-18T19:30:21.319Z,8.6
2023-04-18T19:33:09.579Z,8.7
2023-04-18T19:35:58.280Z,9.6
2023-04-18T19:38:45.562Z,9.2
2023-04-18T19:41:32.909Z,9.4
2023-04-18T19:44:20.280Z,9.4
2023-04-18T19:47:07.912Z,9.2
2023-04-18T19:49:55.411Z,8.7
2023-04-18T19:52:42.797Z,9.4
2023-04-18T19:55:30.291Z,9.9
2023-04-18T19:58:17.565Z,10.2
2023-04-18T20:01:21.021Z,9.8
2023-04-18T20:04:10.449Z,8.4
2023-04-18T20:06:57.940Z,9.5
2023-04-18T20:09:46.945Z,9.2
2023-04-18T20:12:34.370Z,9.7
2023-04-18T20:15:21.838Z,10.1
2023-04-18T20:18:09.666Z,9.4
2023-04-18T20:20:57.172Z,10.3
2023-04-18T20:23:44.476Z,9.2
2023-04-18T20:26:31.855Z,9.2
2023-04-18T20:29:19.203Z,12.1
2023-04-18T20:32:06.628Z,11.1
2023-04-18T20:34:56.315Z,10.5
2023-04-18T20:37:44.534Z,9.6
2023-04-18T20:40:31.820Z,9.5
2023-04-18T20:43:19.957Z,9.3
2023-04-18T20:46:08.049Z,8.5
2023-04-18T20:48:57.339Z,9.7
2023-04-18T20:51:44.890Z,9.7
2023-04-18T20:54:32.388Z,9.4
2023-04-18T20:57:20.185Z,8.9
2023-04-18T21:00:07.614Z,11.3
2023-04-18T21:02:58.537Z,10.3
2023-04-18T21:05:45.928Z,10.3
2023-04-18T21:08:33.483Z,9.9
2023-04-18T21:11:22.742Z,10.1
2023-04-18T21:14:10.295Z,8.5
2023-04-18T21:16:58.349Z,9.5
2023-04-18T21:19:46.355Z,9.6
2023-04-18T21:22:34.451Z,8.6
2023-04-18T21:25:21.884Z,11
2023-04-18T21:28:09.604Z,8.4
2023-04-18T21:30:57.293Z,7.9
2023-04-18T21:33:45.333Z,9.6
2023-04-18T21:36:32.863Z,8.6
2023-04-18T21:39:20.532Z,8.5
2023-04-18T21:42:07.957Z,9.1
2023-04-18T21:44:55.954Z,9.4
2023-04-18T21:47:43.333Z,8.3
2023-04-18T21:50:31.266Z,8.4
2023-04-18T21:53:18.667Z,8.7
2023-04-18T21:56:06.025Z,8.5
2023-04-18T21:58:54.078Z,8.7
2023-04-18T22:01:41.403Z,8.1
2023-04-18T22:04:29.283Z,8.5
2023-04-18T22:07:17.259Z,8.3
2023-04-18T22:10:04.788Z,8.4
2023-04-18T22:12:53.568Z,7.6
2023-04-18T22:15:41.040Z,7.8
2023-04-18T22:18:29.599Z,7.2
2023-04-18T22:21:18.419Z,8.2
2023-04-18T22:24:05.703Z,7
2023-04-18T22:26:54.327Z,8.3
2023-04-18T22:29:41.698Z,7.6
2023-04-18T22:32:29.002Z,8.1
2023-04-18T22:35:16.344Z,8.7
2023-04-18T22:38:03.817Z,7.9
2023-04-18T22:40:51.259Z,8.4
2023-04-18T22:43:38.737Z,6.9
2023-04-18T22:46:26.060Z,7.3
2023-04-18T22:49:13.414Z,7.7
2023-04-18T22:52:02.480Z,7.8
2023-04-18T22:54:50.781Z,7.2
2023-04-18T22:57:38.556Z,8.1
2023-04-18T23:00:25.868Z,7.2
2023-04-18T23:03:13.225Z,7.2
2023-04-18T23:06:00.625Z,8.4
2023-04-18T23:08:48.027Z,7.1
2023-04-18T23:11:35.431Z,7.5
2023-04-18T23:14:22.870Z,6.9
2023-04-18T23:17:10.281Z,6.4
2023-04-18T23:19:57.926Z,6.3
2023-04-18T23:22:45.554Z,4.4
2023-04-18T23:25:35.906Z,4.5
2023-04-18T23:28:23.559Z,5.5
2023-04-18T23:31:10.952Z,4.6
2023-04-18T23:33:58.327Z,4.3
2023-04-18T23:36:45.576Z,3.7
2023-04-18T23:39:32.928Z,4.2
2023-04-18T23:42:20.585Z,3.8
2023-04-18T23:45:08.698Z,4.3
2023-04-18T23:47:56.791Z,3.7
2023-04-18T23:50:44.086Z,4.3
2023-04-18T23:53:34.990Z,4
2023-04-18T23:56:22.780Z,3.7
2023-04-18T23:59:10.908Z,4.5
